sensor_id;sensor_type;location;lat;lon;timestamp;P1;durP1;ratioP1;P2;durP2;ratioP2
18596;SDS011;9428;50.950;6.912;2023-12-20T00:02:42;11.90;;;9.23;;
18596;SDS011;9428;50.950;6.912;2023-12-20T00:05:33;11.02;;;8.45;;
18596;SDS011;9428;50.950;6.912;2023-12-20T00:08:23;12.63;;;9.37;;
18596;SDS011;9428;50.950;6.912;2023-12-20T00:11:10;13.90;;;9.17;;
18596;SDS011;9428;50.950;6.912;2023-12-20T00:13:58;12.87;;;9.90;;
18596;SDS011;9428;50.950;6.912;2023-12-20T00:16:45;12.60;;;9.63;;
18596;SDS011;9428;50.950;6.912;2023-12-20T00:19:34;11.43;;;8.73;;
18596;SDS011;9428;50.950;6.912;2023-12-20T00:22:23;12.60;;;9.30;;
18596;SDS011;9428;50.950;6.912;2023-12-20T00:25:10;11.17;;;8.90;;
18596;SDS011;9428;50.950;6.912;2023-12-20T00:27:58;11.55;;;8.00;;
18596;SDS011;9428;50.950;6.912;2023-12-20T00:30:45;10.77;;;7.80;;
18596;SDS011;9428;50.950;6.912;2023-12-20T00:33:32;11.13;;;7.63;;
18596;SDS011;9428;50.950;6.912;2023-12-20T00:36:20;15.00;;;8.20;;
18596;SDS011;9428;50.950;6.912;2023-12-20T00:39:08;10.43;;;8.10;;
18596;SDS011;9428;50.950;6.912;2023-12-20T00:41:56;10.50;;;8.27;;
18596;SDS011;9428;50.950;6.912;2023-12-20T00:44:43;9.68;;;5.43;;
18596;SDS011;9428;50.950;6.912;2023-12-20T00:47:30;8.10;;;4.83;;
18596;SDS011;9428;50.950;6.912;2023-12-20T00:50:20;9.90;;;5.07;;
18596;SDS011;9428;50.950;6.912;2023-12-20T00:53:07;8.43;;;5.27;;
18596;SDS011;9428;50.950;6.912;2023-12-20T00:55:56;7.10;;;5.10;;
18596;SDS011;9428;50.950;6.912;2023-12-20T00:58:44;7.60;;;5.27;;
18596;SDS011;9428;50.950;6.912;2023-12-20T01:01:31;9.20;;;5.32;;
18596;SDS011;9428;50.950;6.912;2023-12-20T01:04:21;7.03;;;5.20;;
18596;SDS011;9428;50.950;6.912;2023-12-20T01:07:08;7.27;;;5.60;;
18596;SDS011;9428;50.950;6.912;2023-12-20T01:09:56;11.10;;;5.25;;
18596;SDS011;9428;50.950;6.912;2023-12-20T01:12:44;11.13;;;5.88;;
18596;SDS011;9428;50.950;6.912;2023-12-20T01:15:32;6.67;;;4.67;;
18596;SDS011;9428;50.950;6.912;2023-12-20T01:18:19;8.60;;;5.30;;
18596;SDS011;9428;50.950;6.912;2023-12-20T01:21:06;8.98;;;5.38;;
18596;SDS011;9428;50.950;6.912;2023-12-20T01:23:54;12.50;;;6.13;;
18596;SDS011;9428;50.950;6.912;2023-12-20T01:26:41;9.98;;;5.82;;
18596;SDS011;9428;50.950;6.912;2023-12-20T01:29:30;8.37;;;5.07;;
18596;SDS011;9428;50.950;6.912;2023-12-20T01:32:17;9.37;;;5.80;;
18596;SDS011;9428;50.950;6.912;2023-12-20T01:35:04;11.35;;;6.80;;
18596;SDS011;9428;50.950;6.912;2023-12-20T01:37:52;11.07;;;7.13;;
18596;SDS011;9428;50.950;6.912;2023-12-20T01:40:42;12.97;;;6.90;;
18596;SDS011;9428;50.950;6.912;2023-12-20T01:43:29;14.37;;;7.57;;
18596;SDS011;9428;50.950;6.912;2023-12-20T01:46:18;13.40;;;7.57;;
18596;SDS011;9428;50.950;6.912;2023-12-20T01:49:06;13.50;;;8.30;;
18596;SDS011;9428;50.950;6.912;2023-12-20T01:51:54;13.93;;;9.40;;
18596;SDS011;9428;50.950;6.912;2023-12-20T01:54:42;14.75;;;9.63;;
18596;SDS011;9428;50.950;6.912;2023-12-20T01:57:30;16.43;;;9.10;;
18596;SDS011;9428;50.950;6.912;2023-12-20T02:00:17;17.67;;;8.90;;
18596;SDS011;9428;50.950;6.912;2023-12-20T02:03:10;15.13;;;8.60;;
18596;SDS011;9428;50.950;6.912;2023-12-20T02:05:59;14.83;;;7.73;;
18596;SDS011;9428;50.950;6.912;2023-12-20T02:08:46;14.80;;;7.43;;
18596;SDS011;9428;50.950;6.912;2023-12-20T02:11:35;15.90;;;7.07;;
18596;SDS011;9428;50.950;6.912;2023-12-20T02:14:23;15.97;;;6.67;;
18596;SDS011;9428;50.950;6.912;2023-12-20T02:17:10;17.87;;;7.30;;
18596;SDS011;9428;50.950;6.912;2023-12-20T02:19:59;17.70;;;6.10;;
18596;SDS011;9428;50.950;6.912;2023-12-20T02:22:48;12.57;;;6.03;;
18596;SDS011;9428;50.950;6.912;2023-12-20T02:25:38;15.33;;;5.60;;
18596;SDS011;9428;50.950;6.912;2023-12-20T02:28:26;14.53;;;4.97;;
18596;SDS011;9428;50.950;6.912;2023-12-20T02:31:14;10.90;;;5.03;;
18596;SDS011;9428;50.950;6.912;2023-12-20T02:34:01;16.77;;;4.30;;
18596;SDS011;9428;50.950;6.912;2023-12-20T02:36:49;13.37;;;4.43;;
18596;SDS011;9428;50.950;6.912;2023-12-20T02:39:37;13.17;;;4.23;;
18596;SDS011;9428;50.950;6.912;2023-12-20T02:42:25;9.63;;;4.10;;
18596;SDS011;9428;50.950;6.912;2023-12-20T02:45:12;23.53;;;5.03;;
18596;SDS011;9428;50.950;6.912;2023-12-20T02:48:00;9.83;;;3.70;;
18596;SDS011;9428;50.950;6.912;2023-12-20T02:50:48;13.40;;;3.83;;
18596;SDS011;9428;50.950;6.912;2023-12-20T02:53:36;16.97;;;3.30;;
18596;SDS011;9428;50.950;6.912;2023-12-20T02:56:24;10.63;;;3.07;;
18596;SDS011;9428;50.950;6.912;2023-12-20T02:59:12;16.00;;;3.20;;
18596;SDS011;9428;50.950;6.912;2023-12-20T03:02:00;13.37;;;2.47;;
18596;SDS011;9428;50.950;6.912;2023-12-20T03:04:47;13.60;;;2.73;;
18596;SDS011;9428;50.950;6.912;2023-12-20T03:07:36;7.10;;;2.33;;
18596;SDS011;9428;50.950;6.912;2023-12-20T03:10:23;9.17;;;2.47;;
18596;SDS011;9428;50.950;6.912;2023-12-20T03:13:12;9.33;;;2.40;;
18596;SDS011;9428;50.950;6.912;2023-12-20T03:16:05;14.90;;;2.97;;
18596;SDS011;9428;50.950;6.912;2023-12-20T03:18:55;14.03;;;2.83;;
18596;SDS011;9428;50.950;6.912;2023-12-20T03:21:44;8.63;;;2.93;;
18596;SDS011;9428;50.950;6.912;2023-12-20T03:24:32;14.60;;;2.50;;
18596;SDS011;9428;50.950;6.912;2023-12-20T03:27:19;11.97;;;2.70;;
18596;SDS011;9428;50.950;6.912;2023-12-20T03:30:09;9.63;;;3.43;;
18596;SDS011;9428;50.950;6.912;2023-12-20T03:32:57;12.80;;;3.17;;
18596;SDS011;9428;50.950;6.912;2023-12-20T03:35:44;10.37;;;2.70;;
18596;SDS011;9428;50.950;6.912;2023-12-20T03:38:32;13.53;;;3.10;;
18596;SDS011;9428;50.950;6.912;2023-12-20T03:41:19;10.87;;;3.10;;
18596;SDS011;9428;50.950;6.912;2023-12-20T03:44:06;14.87;;;3.40;;
18596;SDS011;9428;50.950;6.912;2023-12-20T03:46:58;9.70;;;2.67;;
18596;SDS011;9428;50.950;6.912;2023-12-20T03:49:48;11.47;;;2.27;;
18596;SDS011;9428;50.950;6.912;2023-12-20T03:52:35;9.10;;;3.07;;
18596;SDS011;9428;50.950;6.912;2023-12-20T03:55:23;9.90;;;2.97;;
18596;SDS011;9428;50.950;6.912;2023-12-20T03:58:10;14.50;;;2.97;;
18596;SDS011;9428;50.950;6.912;2023-12-20T04:00:58;10.10;;;3.03;;
18596;SDS011;9428;50.950;6.912;2023-12-20T04:03:46;20.27;;;3.33;;
18596;SDS011;9428;50.950;6.912;2023-12-20T04:06:34;13.33;;;3.10;;
18596;SDS011;9428;50.950;6.912;2023-12-20T04:09:22;17.57;;;3.53;;
18596;SDS011;9428;50.950;6.912;2023-12-20T04:12:09;12.17;;;2.70;;
18596;SDS011;9428;50.950;6.912;2023-12-20T04:14:57;18.53;;;3.43;;
18596;SDS011;9428;50.950;6.912;2023-12-20T04:17:44;14.90;;;3.73;;
18596;SDS011;9428;50.950;6.912;2023-12-20T04:20:35;10.77;;;3.30;;
18596;SDS011;9428;50.950;6.912;2023-12-20T04:23:23;8.27;;;3.20;;
18596;SDS011;9428;50.950;6.912;2023-12-20T04:26:14;10.30;;;3.87;;
18596;SDS011;9428;50.950;6.912;2023-12-20T04:29:02;11.03;;;3.23;;
18596;SDS011;9428;50.950;6.912;2023-12-20T04:31:49;18.17;;;3.43;;
18596;SDS011;9428;50.950;6.912;2023-12-20T04:34:37;11.57;;;3.00;;
18596;SDS011;9428;50.950;6.912;2023-12-20T04:37:28;10.60;;;3.53;;
18596;SDS011;9428;50.950;6.912;2023-12-20T04:40:16;17.63;;;3.87;;
18596;SDS011;9428;50.950;6.912;2023-12-20T04:43:03;14.10;;;3.93;;
18596;SDS011;9428;50.950;6.912;2023-12-20T04:45:51;17.73;;;4.43;;
18596;SDS011;9428;50.950;6.912;2023-12-20T04:48:45;16.47;;;4.17;;
18596;SDS011;9428;50.950;6.912;2023-12-20T04:51:32;15.47;;;3.93;;
18596;SDS011;9428;50.950;6.912;2023-12-20T04:54:22;10.77;;;3.80;;
18596;SDS011;9428;50.950;6.912;2023-12-20T04:57:09;14.40;;;3.70;;
18596;SDS011;9428;50.950;6.912;2023-12-20T04:59:57;12.03;;;3.67;;
18596;SDS011;9428;50.950;6.912;2023-12-20T05:02:44;14.97;;;3.63;;
18596;SDS011;9428;50.950;6.912;2023-12-20T05:05:31;19.40;;;3.90;;
18596;SDS011;9428;50.950;6.912;2023-12-20T05:08:22;16.83;;;3.37;;
18596;SDS011;9428;50.950;6.912;2023-12-20T05:11:11;11.27;;;3.93;;
18596;SDS011;9428;50.950;6.912;2023-12-20T05:14:03;14.43;;;3.67;;
18596;SDS011;9428;50.950;6.912;2023-12-20T05:16:50;16.57;;;3.87;;
18596;SDS011;9428;50.950;6.912;2023-12-20T05:19:38;14.23;;;3.40;;
18596;SDS011;9428;50.950;6.912;2023-12-20T05:22:25;14.40;;;3.57;;
18596;SDS011;9428;50.950;6.912;2023-12-20T05:25:13;17.40;;;4.00;;
18596;SDS011;9428;50.950;6.912;2023-12-20T05:28:02;10.47;;;3.27;;
18596;SDS011;9428;50.950;6.912;2023-12-20T05:30:49;14.83;;;4.07;;
18596;SDS011;9428;50.950;6.912;2023-12-20T05:33:37;11.67;;;3.80;;
18596;SDS011;9428;50.950;6.912;2023-12-20T05:36:25;16.27;;;4.10;;
18596;SDS011;9428;50.950;6.912;2023-12-20T05:39:12;17.47;;;3.60;;
18596;SDS011;9428;50.950;6.912;2023-12-20T05:41:59;15.30;;;3.97;;
18596;SDS011;9428;50.950;6.912;2023-12-20T05:44:48;16.07;;;4.73;;
18596;SDS011;9428;50.950;6.912;2023-12-20T05:47:35;15.13;;;4.27;;
18596;SDS011;9428;50.950;6.912;2023-12-20T05:50:23;11.03;;;4.20;;
18596;SDS011;9428;50.950;6.912;2023-12-20T05:53:10;14.50;;;3.60;;
18596;SDS011;9428;50.950;6.912;2023-12-20T05:55:58;17.10;;;3.97;;
18596;SDS011;9428;50.950;6.912;2023-12-20T05:58:45;16.83;;;3.93;;
18596;SDS011;9428;50.950;6.912;2023-12-20T06:01:34;15.50;;;3.67;;
18596;SDS011;9428;50.950;6.912;2023-12-20T06:04:21;13.77;;;3.63;;
18596;SDS011;9428;50.950;6.912;2023-12-20T06:07:11;19.20;;;3.53;;
18596;SDS011;9428;50.950;6.912;2023-12-20T06:09:58;18.57;;;3.83;;
18596;SDS011;9428;50.950;6.912;2023-12-20T06:12:46;17.60;;;3.80;;
18596;SDS011;9428;50.950;6.912;2023-12-20T06:15:35;11.73;;;4.20;;
18596;SDS011;9428;50.950;6.912;2023-12-20T06:18:24;19.00;;;4.90;;
18596;SDS011;9428;50.950;6.912;2023-12-20T06:21:11;13.33;;;3.37;;
18596;SDS011;9428;50.950;6.912;2023-12-20T06:24:01;10.70;;;3.90;;
18596;SDS011;9428;50.950;6.912;2023-12-20T06:26:48;13.03;;;4.37;;
18596;SDS011;9428;50.950;6.912;2023-12-20T06:29:36;16.70;;;3.77;;
18596;SDS011;9428;50.950;6.912;2023-12-20T06:32:28;19.37;;;4.30;;
18596;SDS011;9428;50.950;6.912;2023-12-20T06:35:17;15.37;;;4.27;;
18596;SDS011;9428;50.950;6.912;2023-12-20T06:38:05;19.93;;;4.10;;
18596;SDS011;9428;50.950;6.912;2023-12-20T06:40:52;12.70;;;4.10;;
18596;SDS011;9428;50.950;6.912;2023-12-20T06:43:40;24.93;;;4.60;;
18596;SDS011;9428;50.950;6.912;2023-12-20T06:46:28;19.33;;;3.83;;
18596;SDS011;9428;50.950;6.912;2023-12-20T06:49:15;13.03;;;4.70;;
18596;SDS011;9428;50.950;6.912;2023-12-20T06:52:04;17.33;;;3.70;;
18596;SDS011;9428;50.950;6.912;2023-12-20T06:54:52;16.57;;;4.30;;
18596;SDS011;9428;50.950;6.912;2023-12-20T06:57:39;16.00;;;3.60;;
18596;SDS011;9428;50.950;6.912;2023-12-20T07:00:26;17.40;;;3.87;;
18596;SDS011;9428;50.950;6.912;2023-12-20T07:03:14;16.20;;;4.00;;
18596;SDS011;9428;50.950;6.912;2023-12-20T07:06:03;15.17;;;4.37;;
18596;SDS011;9428;50.950;6.912;2023-12-20T07:08:52;13.10;;;3.50;;
18596;SDS011;9428;50.950;6.912;2023-12-20T07:11:40;20.93;;;4.00;;
18596;SDS011;9428;50.950;6.912;2023-12-20T07:14:27;8.37;;;3.07;;
18596;SDS011;9428;50.950;6.912;2023-12-20T07:17:14;16.37;;;2.93;;
18596;SDS011;9428;50.950;6.912;2023-12-20T07:20:02;20.17;;;3.47;;
18596;SDS011;9428;50.950;6.912;2023-12-20T07:22:52;14.53;;;4.00;;
18596;SDS011;9428;50.950;6.912;2023-12-20T07:25:40;17.03;;;3.97;;
18596;SDS011;9428;50.950;6.912;2023-12-20T07:28:28;14.20;;;4.33;;
18596;SDS011;9428;50.950;6.912;2023-12-20T07:31:15;12.47;;;3.83;;
18596;SDS011;9428;50.950;6.912;2023-12-20T07:34:03;15.27;;;4.03;;
18596;SDS011;9428;50.950;6.912;2023-12-20T07:36:51;15.13;;;3.90;;
18596;SDS011;9428;50.950;6.912;2023-12-20T07:39:38;17.10;;;4.30;;
18596;SDS011;9428;50.950;6.912;2023-12-20T07:42:28;13.13;;;5.27;;
18596;SDS011;9428;50.950;6.912;2023-12-20T07:45:15;18.10;;;5.40;;
18596;SDS011;9428;50.950;6.912;2023-12-20T07:48:03;14.03;;;4.23;;
18596;SDS011;9428;50.950;6.912;2023-12-20T07:50:51;15.40;;;4.50;;
18596;SDS011;9428;50.950;6.912;2023-12-20T07:53:39;15.97;;;4.80;;
18596;SDS011;9428;50.950;6.912;2023-12-20T07:56:26;19.17;;;4.90;;
18596;SDS011;9428;50.950;6.912;2023-12-20T07:59:15;17.03;;;4.73;;
18596;SDS011;9428;50.950;6.912;2023-12-20T08:02:03;14.40;;;4.23;;
18596;SDS011;9428;50.950;6.912;2023-12-20T08:04:50;17.90;;;4.37;;
18596;SDS011;9428;50.950;6.912;2023-12-20T08:07:38;16.23;;;4.33;;
18596;SDS011;9428;50.950;6.912;2023-12-20T08:10:25;11.17;;;4.17;;
18596;SDS011;9428;50.950;6.912;2023-12-20T08:13:15;19.13;;;5.13;;
18596;SDS011;9428;50.950;6.912;2023-12-20T08:16:04;11.77;;;4.50;;
18596;SDS011;9428;50.950;6.912;2023-12-20T08:18:51;11.53;;;4.63;;
18596;SDS011;9428;50.950;6.912;2023-12-20T08:21:41;17.40;;;4.77;;
18596;SDS011;9428;50.950;6.912;2023-12-20T08:24:29;16.83;;;3.90;;
18596;SDS011;9428;50.950;6.912;2023-12-20T08:27:16;17.83;;;4.23;;
18596;SDS011;9428;50.950;6.912;2023-12-20T08:30:04;17.93;;;4.97;;
18596;SDS011;9428;50.950;6.912;2023-12-20T08:32:56;18.80;;;5.23;;
18596;SDS011;9428;50.950;6.912;2023-12-20T08:35:46;14.33;;;4.73;;
18596;SDS011;9428;50.950;6.912;2023-12-20T08:38:34;17.57;;;4.87;;
18596;SDS011;9428;50.950;6.912;2023-12-20T08:41:24;16.50;;;4.27;;
18596;SDS011;9428;50.950;6.912;2023-12-20T08:44:11;13.97;;;4.07;;
18596;SDS011;9428;50.950;6.912;2023-12-20T08:47:01;15.30;;;4.63;;
18596;SDS011;9428;50.950;6.912;2023-12-20T08:49:50;15.27;;;3.90;;
18596;SDS011;9428;50.950;6.912;2023-12-20T08:52:41;12.27;;;4.27;;
18596;SDS011;9428;50.950;6.912;2023-12-20T08:55:28;15.17;;;4.23;;
18596;SDS011;9428;50.950;6.912;2023-12-20T08:58:16;14.37;;;4.47;;
18596;SDS011;9428;50.950;6.912;2023-12-20T09:01:04;19.97;;;4.40;;
18596;SDS011;9428;50.950;6.912;2023-12-20T09:03:51;16.07;;;4.77;;
18596;SDS011;9428;50.950;6.912;2023-12-20T09:06:40;9.37;;;3.57;;
18596;SDS011;9428;50.950;6.912;2023-12-20T09:09:30;15.27;;;4.30;;
18596;SDS011;9428;50.950;6.912;2023-12-20T09:12:18;11.30;;;3.90;;
18596;SDS011;9428;50.950;6.912;2023-12-20T09:15:06;17.03;;;4.70;;
18596;SDS011;9428;50.950;6.912;2023-12-20T09:17:54;16.03;;;4.07;;
18596;SDS011;9428;50.950;6.912;2023-12-20T09:20:41;18.83;;;4.17;;
18596;SDS011;9428;50.950;6.912;2023-12-20T09:23:30;14.60;;;3.73;;
18596;SDS011;9428;50.950;6.912;2023-12-20T09:26:17;12.43;;;3.50;;
18596;SDS011;9428;50.950;6.912;2023-12-20T09:29:06;14.30;;;3.27;;
18596;SDS011;9428;50.950;6.912;2023-12-20T09:31:54;15.20;;;4.27;;
18596;SDS011;9428;50.950;6.912;2023-12-20T09:34:42;13.33;;;3.37;;
18596;SDS011;9428;50.950;6.912;2023-12-20T09:37:30;27.90;;;4.53;;
18596;SDS011;9428;50.950;6.912;2023-12-20T09:40:19;14.30;;;3.67;;
18596;SDS011;9428;50.950;6.912;2023-12-20T09:43:09;14.67;;;3.67;;
18596;SDS011;9428;50.950;6.912;2023-12-20T09:45:59;8.33;;;3.07;;
18596;SDS011;9428;50.950;6.912;2023-12-20T09:48:48;10.23;;;2.63;;
18596;SDS011;9428;50.950;6.912;2023-12-20T09:51:36;12.90;;;2.77;;
18596;SDS011;9428;50.950;6.912;2023-12-20T09:54:23;11.20;;;3.00;;
18596;SDS011;9428;50.950;6.912;2023-12-20T09:57:14;15.27;;;2.90;;
18596;SDS011;9428;50.950;6.912;2023-12-20T10:00:01;17.90;;;3.73;;
18596;SDS011;9428;50.950;6.912;2023-12-20T10:02:54;14.53;;;4.03;;
18596;SDS011;9428;50.950;6.912;2023-12-20T10:05:44;13.97;;;3.90;;
18596;SDS011;9428;50.950;6.912;2023-12-20T10:08:32;13.77;;;3.87;;
18596;SDS011;9428;50.950;6.912;2023-12-20T10:11:19;13.33;;;3.67;;
18596;SDS011;9428;50.950;6.912;2023-12-20T10:14:10;13.20;;;3.07;;
18596;SDS011;9428;50.950;6.912;2023-12-20T10:17:01;12.07;;;3.10;;
18596;SDS011;9428;50.950;6.912;2023-12-20T10:19:49;18.10;;;2.80;;
18596;SDS011;9428;50.950;6.912;2023-12-20T10:22:36;11.23;;;3.80;;
18596;SDS011;9428;50.950;6.912;2023-12-20T10:25:24;16.50;;;4.10;;
18596;SDS011;9428;50.950;6.912;2023-12-20T10:28:12;17.77;;;3.70;;
18596;SDS011;9428;50.950;6.912;2023-12-20T10:31:04;20.20;;;3.87;;
18596;SDS011;9428;50.950;6.912;2023-12-20T10:33:52;12.47;;;3.10;;
18596;SDS011;9428;50.950;6.912;2023-12-20T10:36:39;11.50;;;3.57;;
18596;SDS011;9428;50.950;6.912;2023-12-20T10:39:26;12.37;;;3.00;;
18596;SDS011;9428;50.950;6.912;2023-12-20T10:42:14;11.50;;;3.13;;
18596;SDS011;9428;50.950;6.912;2023-12-20T10:45:02;12.77;;;3.50;;
18596;SDS011;9428;50.950;6.912;2023-12-20T10:47:52;14.30;;;3.27;;
18596;SDS011;9428;50.950;6.912;2023-12-20T10:50:39;10.37;;;3.80;;
18596;SDS011;9428;50.950;6.912;2023-12-20T10:53:28;16.13;;;3.33;;
18596;SDS011;9428;50.950;6.912;2023-12-20T10:56:18;11.93;;;3.13;;
18596;SDS011;9428;50.950;6.912;2023-12-20T10:59:06;14.90;;;3.23;;
18596;SDS011;9428;50.950;6.912;2023-12-20T11:01:57;10.13;;;2.93;;
18596;SDS011;9428;50.950;6.912;2023-12-20T11:04:50;13.30;;;3.73;;
18596;SDS011;9428;50.950;6.912;2023-12-20T11:07:42;21.03;;;4.40;;
18596;SDS011;9428;50.950;6.912;2023-12-20T11:10:38;18.33;;;3.77;;
18596;SDS011;9428;50.950;6.912;2023-12-20T11:13:37;14.17;;;3.40;;
18596;SDS011;9428;50.950;6.912;2023-12-20T11:16:31;10.73;;;3.07;;
18596;SDS011;9428;50.950;6.912;2023-12-20T11:19:18;13.67;;;3.63;;
18596;SDS011;9428;50.950;6.912;2023-12-20T11:22:09;12.80;;;3.23;;
18596;SDS011;9428;50.950;6.912;2023-12-20T11:24:58;12.97;;;3.23;;
18596;SDS011;9428;50.950;6.912;2023-12-20T11:30:56;14.97;;;2.97;;
18596;SDS011;9428;50.950;6.912;2023-12-20T11:33:45;15.63;;;2.75;;
18596;SDS011;9428;50.950;6.912;2023-12-20T11:36:34;12.07;;;3.30;;
18596;SDS011;9428;50.950;6.912;2023-12-20T11:39:22;9.37;;;3.47;;
18596;SDS011;9428;50.950;6.912;2023-12-20T11:42:11;18.60;;;3.73;;
18596;SDS011;9428;50.950;6.912;2023-12-20T11:45:02;12.80;;;2.53;;
18596;SDS011;9428;50.950;6.912;2023-12-20T11:47:55;9.07;;;2.97;;
18596;SDS011;9428;50.950;6.912;2023-12-20T11:50:44;13.27;;;4.13;;
18596;SDS011;9428;50.950;6.912;2023-12-20T11:53:32;14.03;;;3.27;;
18596;SDS011;9428;50.950;6.912;2023-12-20T11:56:21;15.00;;;3.20;;
18596;SDS011;9428;50.950;6.912;2023-12-20T11:59:08;13.40;;;3.27;;
18596;SDS011;9428;50.950;6.912;2023-12-20T12:01:56;14.27;;;3.30;;
18596;SDS011;9428;50.950;6.912;2023-12-20T12:04:48;8.90;;;2.97;;
18596;SDS011;9428;50.950;6.912;2023-12-20T12:07:36;10.17;;;2.67;;
18596;SDS011;9428;50.950;6.912;2023-12-20T12:10:23;12.43;;;2.90;;
18596;SDS011;9428;50.950;6.912;2023-12-20T12:13:12;10.23;;;3.03;;
18596;SDS011;9428;50.950;6.912;2023-12-20T12:16:01;9.50;;;3.20;;
18596;SDS011;9428;50.950;6.912;2023-12-20T12:18:54;11.77;;;3.60;;
18596;SDS011;9428;50.950;6.912;2023-12-20T12:21:43;11.80;;;3.40;;
18596;SDS011;9428;50.950;6.912;2023-12-20T12:24:30;12.77;;;3.60;;
18596;SDS011;9428;50.950;6.912;2023-12-20T12:27:17;16.33;;;3.53;;
18596;SDS011;9428;50.950;6.912;2023-12-20T12:30:07;12.55;;;3.53;;
18596;SDS011;9428;50.950;6.912;2023-12-20T12:32:58;16.55;;;3.58;;
18596;SDS011;9428;50.950;6.912;2023-12-20T12:35:45;14.98;;;4.03;;
18596;SDS011;9428;50.950;6.912;2023-12-20T12:38:33;18.75;;;4.13;;
18596;SDS011;9428;50.950;6.912;2023-12-20T12:41:20;11.97;;;3.37;;
18596;SDS011;9428;50.950;6.912;2023-12-20T12:44:08;14.83;;;4.20;;
18596;SDS011;9428;50.950;6.912;2023-12-20T12:46:57;17.00;;;3.10;;
18596;SDS011;9428;50.950;6.912;2023-12-20T12:49:44;11.07;;;3.67;;
18596;SDS011;9428;50.950;6.912;2023-12-20T12:52:31;14.23;;;2.90;;
18596;SDS011;9428;50.950;6.912;2023-12-20T12:55:19;15.07;;;3.28;;
18596;SDS011;9428;50.950;6.912;2023-12-20T12:58:06;11.25;;;3.40;;
18596;SDS011;9428;50.950;6.912;2023-12-20T13:00:54;8.15;;;3.13;;
18596;SDS011;9428;50.950;6.912;2023-12-20T13:03:42;12.27;;;3.33;;
18596;SDS011;9428;50.950;6.912;2023-12-20T13:06:29;5.50;;;3.03;;
18596;SDS011;9428;50.950;6.912;2023-12-20T13:09:17;10.52;;;3.33;;
18596;SDS011;9428;50.950;6.912;2023-12-20T13:12:05;13.90;;;4.25;;
18596;SDS011;9428;50.950;6.912;2023-12-20T13:14:53;9.98;;;3.25;;
18596;SDS011;9428;50.950;6.912;2023-12-20T13:17:40;15.10;;;4.27;;
18596;SDS011;9428;50.950;6.912;2023-12-20T13:20:29;6.90;;;3.53;;
18596;SDS011;9428;50.950;6.912;2023-12-20T13:23:17;13.93;;;3.50;;
18596;SDS011;9428;50.950;6.912;2023-12-20T13:26:04;11.27;;;4.23;;
18596;SDS011;9428;50.950;6.912;2023-12-20T13:28:53;15.02;;;3.42;;
18596;SDS011;9428;50.950;6.912;2023-12-20T13:31:42;10.50;;;3.20;;
18596;SDS011;9428;50.950;6.912;2023-12-20T13:34:30;7.87;;;3.13;;
18596;SDS011;9428;50.950;6.912;2023-12-20T13:37:18;20.00;;;4.17;;
18596;SDS011;9428;50.950;6.912;2023-12-20T13:40:06;15.07;;;3.73;;
18596;SDS011;9428;50.950;6.912;2023-12-20T13:42:56;12.33;;;3.30;;
18596;SDS011;9428;50.950;6.912;2023-12-20T13:45:43;9.57;;;2.97;;
18596;SDS011;9428;50.950;6.912;2023-12-20T13:48:31;13.00;;;3.70;;
18596;SDS011;9428;50.950;6.912;2023-12-20T13:51:18;11.30;;;3.43;;
18596;SDS011;9428;50.950;6.912;2023-12-20T13:54:10;7.50;;;2.90;;
18596;SDS011;9428;50.950;6.912;2023-12-20T13:56:57;14.63;;;3.93;;
18596;SDS011;9428;50.950;6.912;2023-12-20T13:59:44;12.17;;;2.90;;
18596;SDS011;9428;50.950;6.912;2023-12-20T14:02:32;15.03;;;3.37;;
18596;SDS011;9428;50.950;6.912;2023-12-20T14:05:19;11.40;;;3.50;;
18596;SDS011;9428;50.950;6.912;2023-12-20T14:08:08;9.80;;;2.95;;
18596;SDS011;9428;50.950;6.912;2023-12-20T14:10:57;7.25;;;2.97;;
18596;SDS011;9428;50.950;6.912;2023-12-20T14:13:46;10.63;;;3.10;;
18596;SDS011;9428;50.950;6.912;2023-12-20T14:16:34;12.97;;;3.47;;
18596;SDS011;9428;50.950;6.912;2023-12-20T14:19:21;11.83;;;3.27;;
18596;SDS011;9428;50.950;6.912;2023-12-20T14:22:09;13.30;;;3.80;;
18596;SDS011;9428;50.950;6.912;2023-12-20T14:24:56;9.67;;;2.80;;
18596;SDS011;9428;50.950;6.912;2023-12-20T14:27:45;16.67;;;3.97;;
18596;SDS011;9428;50.950;6.912;2023-12-20T14:30:32;10.97;;;3.17;;
18596;SDS011;9428;50.950;6.912;2023-12-20T14:33:20;10.97;;;3.37;;
18596;SDS011;9428;50.950;6.912;2023-12-20T14:36:08;12.07;;;3.53;;
18596;SDS011;9428;50.950;6.912;2023-12-20T14:38:55;6.60;;;2.80;;
18596;SDS011;9428;50.950;6.912;2023-12-20T14:41:42;9.17;;;2.87;;
18596;SDS011;9428;50.950;6.912;2023-12-20T14:44:31;9.77;;;3.20;;
18596;SDS011;9428;50.950;6.912;2023-12-20T14:47:19;12.97;;;2.97;;
18596;SDS011;9428;50.950;6.912;2023-12-20T14:50:07;8.43;;;3.08;;
18596;SDS011;9428;50.950;6.912;2023-12-20T14:52:55;8.97;;;3.07;;
18596;SDS011;9428;50.950;6.912;2023-12-20T14:55:42;15.13;;;3.40;;
18596;SDS011;9428;50.950;6.912;2023-12-20T14:58:29;9.60;;;2.88;;
18596;SDS011;9428;50.950;6.912;2023-12-20T15:01:18;8.97;;;3.23;;
18596;SDS011;9428;50.950;6.912;2023-12-20T15:04:07;15.03;;;3.00;;
18596;SDS011;9428;50.950;6.912;2023-12-20T15:06:58;16.87;;;3.50;;
18596;SDS011;9428;50.950;6.912;2023-12-20T15:09:49;13.60;;;3.53;;
18596;SDS011;9428;50.950;6.912;2023-12-20T15:12:36;12.10;;;3.70;;
18596;SDS011;9428;50.950;6.912;2023-12-20T15:15:25;10.67;;;3.00;;
18596;SDS011;9428;50.950;6.912;2023-12-20T15:18:15;12.63;;;3.20;;
18596;SDS011;9428;50.950;6.912;2023-12-20T15:21:03;10.73;;;3.47;;
18596;SDS011;9428;50.950;6.912;2023-12-20T15:23:57;11.47;;;4.03;;
18596;SDS011;9428;50.950;6.912;2023-12-20T15:26:50;13.77;;;3.23;;
18596;SDS011;9428;50.950;6.912;2023-12-20T15:29:45;13.80;;;3.10;;
18596;SDS011;9428;50.950;6.912;2023-12-20T15:32:35;8.60;;;3.27;;
18596;SDS011;9428;50.950;6.912;2023-12-20T15:35:23;17.25;;;3.55;;
18596;SDS011;9428;50.950;6.912;2023-12-20T15:38:11;12.67;;;3.37;;
18596;SDS011;9428;50.950;6.912;2023-12-20T15:40:59;14.63;;;3.38;;
18596;SDS011;9428;50.950;6.912;2023-12-20T15:43:47;11.13;;;3.13;;
18596;SDS011;9428;50.950;6.912;2023-12-20T15:46:34;8.88;;;3.38;;
18596;SDS011;9428;50.950;6.912;2023-12-20T15:49:22;17.53;;;4.70;;
18596;SDS011;9428;50.950;6.912;2023-12-20T15:52:11;13.17;;;6.13;;
18596;SDS011;9428;50.950;6.912;2023-12-20T15:55:01;17.63;;;7.60;;
18596;SDS011;9428;50.950;6.912;2023-12-20T15:57:49;14.03;;;4.53;;
18596;SDS011;9428;50.950;6.912;2023-12-20T16:00:36;12.57;;;3.63;;
18596;SDS011;9428;50.950;6.912;2023-12-20T16:03:27;11.53;;;3.83;;
18596;SDS011;9428;50.950;6.912;2023-12-20T16:06:14;10.77;;;3.93;;
18596;SDS011;9428;50.950;6.912;2023-12-20T16:09:03;13.37;;;4.43;;
18596;SDS011;9428;50.950;6.912;2023-12-20T16:11:50;16.47;;;4.23;;
18596;SDS011;9428;50.950;6.912;2023-12-20T16:14:38;15.48;;;4.80;;
18596;SDS011;9428;50.950;6.912;2023-12-20T16:17:25;9.45;;;4.05;;
18596;SDS011;9428;50.950;6.912;2023-12-20T16:20:12;10.40;;;3.60;;
18596;SDS011;9428;50.950;6.912;2023-12-20T16:23:00;16.03;;;4.53;;
18596;SDS011;9428;50.950;6.912;2023-12-20T16:25:48;15.93;;;4.30;;
18596;SDS011;9428;50.950;6.912;2023-12-20T16:28:41;9.30;;;4.10;;
18596;SDS011;9428;50.950;6.912;2023-12-20T16:31:28;10.33;;;5.00;;
18596;SDS011;9428;50.950;6.912;2023-12-20T16:34:16;20.20;;;4.63;;
18596;SDS011;9428;50.950;6.912;2023-12-20T16:37:03;16.60;;;4.87;;
18596;SDS011;9428;50.950;6.912;2023-12-20T16:39:51;15.23;;;4.97;;
18596;SDS011;9428;50.950;6.912;2023-12-20T16:42:39;15.67;;;4.50;;
18596;SDS011;9428;50.950;6.912;2023-12-20T16:45:27;14.97;;;4.67;;
18596;SDS011;9428;50.950;6.912;2023-12-20T16:48:14;14.07;;;4.63;;
18596;SDS011;9428;50.950;6.912;2023-12-20T16:51:02;8.00;;;4.47;;
18596;SDS011;9428;50.950;6.912;2023-12-20T16:53:49;9.30;;;4.00;;
18596;SDS011;9428;50.950;6.912;2023-12-20T16:56:37;14.47;;;4.40;;
18596;SDS011;9428;50.950;6.912;2023-12-20T16:59:26;10.10;;;3.97;;
18596;SDS011;9428;50.950;6.912;2023-12-20T17:02:13;13.80;;;4.38;;